sensor_id;sensor_type;location;lat;lon;timestamp;P1;durP1;ratioP1;P2;durP2;ratioP2
72286;SDS011;60221;45.696;16.076;2023-06-19T00:02:24;6.60;;;3.00;;
72286;SDS011;60221;45.696;16.076;2023-06-19T00:04:51;7.10;;;3.50;;
72286;SDS011;60221;45.696;16.076;2023-06-19T00:07:18;7.00;;;3.30;;
72286;SDS011;60221;45.696;16.076;2023-06-19T00:09:45;7.00;;;3.60;;
72286;SDS011;60221;45.696;16.076;2023-06-19T00:12:12;7.80;;;3.70;;
72286;SDS011;60221;45.696;16.076;2023-06-19T00:14:38;7.60;;;4.10;;
72286;SDS011;60221;45.696;16.076;2023-06-19T00:17:05;12.10;;;4.00;;
72286;SDS011;60221;45.696;16.076;2023-06-19T00:19:33;7.70;;;3.20;;
72286;SDS011;60221;45.696;16.076;2023-06-19T00:22:03;8.00;;;3.40;;
72286;SDS011;60221;45.696;16.076;2023-06-19T00:24:30;7.90;;;3.50;;
72286;SDS011;60221;45.696;16.076;2023-06-19T00:26:57;11.10;;;3.40;;
72286;SDS011;60221;45.696;16.076;2023-06-19T00:29:29;6.30;;;3.20;;
72286;SDS011;60221;45.696;16.076;2023-06-19T00:31:56;11.10;;;3.80;;
72286;SDS011;60221;45.696;16.076;2023-06-19T00:34:22;8.40;;;3.80;;
72286;SDS011;60221;45.696;16.076;2023-06-19T00:36:52;9.20;;;3.90;;
72286;SDS011;60221;45.696;16.076;2023-06-19T00:39:23;8.20;;;4.20;;
72286;SDS011;60221;45.696;16.076;2023-06-19T00:41:51;7.80;;;3.90;;
72286;SDS011;60221;45.696;16.076;2023-06-19T00:44:18;9.30;;;3.70;;
72286;SDS011;60221;45.696;16.076;2023-06-19T00:46:44;6.80;;;3.60;;
72286;SDS011;60221;45.696;16.076;2023-06-19T00:49:11;8.80;;;3.80;;
72286;SDS011;60221;45.696;16.076;2023-06-19T00:51:38;6.40;;;3.40;;
72286;SDS011;60221;45.696;16.076;2023-06-19T00:54:05;7.90;;;3.90;;
72286;SDS011;60221;45.696;16.076;2023-06-19T00:56:32;12.00;;;4.00;;
72286;SDS011;60221;45.696;16.076;2023-06-19T00:59:01;7.40;;;4.00;;
72286;SDS011;60221;45.696;16.076;2023-06-19T01:01:29;7.20;;;4.20;;
72286;SDS011;60221;45.696;16.076;2023-06-19T01:03:56;7.10;;;3.60;;
72286;SDS011;60221;45.696;16.076;2023-06-19T01:06:25;7.60;;;3.40;;
72286;SDS011;60221;45.696;16.076;2023-06-19T01:09:01;7.30;;;3.60;;
72286;SDS011;60221;45.696;16.076;2023-06-19T01:11:30;6.50;;;3.30;;
72286;SDS011;60221;45.696;16.076;2023-06-19T01:14:00;7.30;;;3.90;;
72286;SDS011;60221;45.696;16.076;2023-06-19T01:16:27;8.50;;;3.70;;
72286;SDS011;60221;45.696;16.076;2023-06-19T01:18:54;6.90;;;3.70;;
72286;SDS011;60221;45.696;16.076;2023-06-19T01:21:21;6.30;;;3.10;;
72286;SDS011;60221;45.696;16.076;2023-06-19T01:23:48;7.90;;;4.30;;
72286;SDS011;60221;45.696;16.076;2023-06-19T01:26:15;8.00;;;3.70;;
72286;SDS011;60221;45.696;16.076;2023-06-19T01:28:43;7.30;;;3.90;;
72286;SDS011;60221;45.696;16.076;2023-06-19T01:31:31;7.00;;;3.40;;
72286;SDS011;60221;45.696;16.076;2023-06-19T01:34:00;7.80;;;3.60;;
72286;SDS011;60221;45.696;16.076;2023-06-19T01:36:27;7.50;;;3.50;;
72286;SDS011;60221;45.696;16.076;2023-06-19T01:38:55;8.50;;;3.70;;
72286;SDS011;60221;45.696;16.076;2023-06-19T01:41:23;9.70;;;4.10;;
72286;SDS011;60221;45.696;16.076;2023-06-19T01:43:50;7.10;;;3.50;;
72286;SDS011;60221;45.696;16.076;2023-06-19T01:46:17;9.20;;;3.70;;
72286;SDS011;60221;45.696;16.076;2023-06-19T01:48:44;9.80;;;3.60;;
72286;SDS011;60221;45.696;16.076;2023-06-19T01:51:11;8.70;;;4.10;;
72286;SDS011;60221;45.696;16.076;2023-06-19T01:53:38;11.10;;;3.40;;
72286;SDS011;60221;45.696;16.076;2023-06-19T01:56:04;9.80;;;4.00;;
72286;SDS011;60221;45.696;16.076;2023-06-19T01:58:31;9.60;;;3.90;;
72286;SDS011;60221;45.696;16.076;2023-06-19T02:00:59;8.30;;;3.30;;
72286;SDS011;60221;45.696;16.076;2023-06-19T02:03:26;7.90;;;4.00;;
72286;SDS011;60221;45.696;16.076;2023-06-19T02:05:53;8.40;;;4.50;;
72286;SDS011;60221;45.696;16.076;2023-06-19T02:08:19;8.20;;;4.10;;
72286;SDS011;60221;45.696;16.076;2023-06-19T02:10:46;12.70;;;5.90;;
72286;SDS011;60221;45.696;16.076;2023-06-19T02:13:13;11.40;;;5.60;;
72286;SDS011;60221;45.696;16.076;2023-06-19T02:15:39;11.50;;;6.10;;
72286;SDS011;60221;45.696;16.076;2023-06-19T02:18:06;10.30;;;5.40;;
72286;SDS011;60221;45.696;16.076;2023-06-19T02:20:33;9.40;;;4.40;;
72286;SDS011;60221;45.696;16.076;2023-06-19T02:23:00;8.10;;;4.40;;
72286;SDS011;60221;45.696;16.076;2023-06-19T02:25:28;11.90;;;4.60;;
72286;SDS011;60221;45.696;16.076;2023-06-19T02:27:55;11.50;;;4.60;;
72286;SDS011;60221;45.696;16.076;2023-06-19T02:30:22;7.40;;;4.50;;
72286;SDS011;60221;45.696;16.076;2023-06-19T02:32:49;7.20;;;3.70;;
72286;SDS011;60221;45.696;16.076;2023-06-19T02:35:16;9.50;;;4.40;;
72286;SDS011;60221;45.696;16.076;2023-06-19T02:37:43;9.00;;;4.60;;
72286;SDS011;60221;45.696;16.076;2023-06-19T02:40:13;8.30;;;3.60;;
72286;SDS011;60221;45.696;16.076;2023-06-19T02:42:40;7.80;;;4.10;;
72286;SDS011;60221;45.696;16.076;2023-06-19T02:45:07;10.40;;;4.60;;
72286;SDS011;60221;45.696;16.076;2023-06-19T02:47:34;9.30;;;4.60;;
72286;SDS011;60221;45.696;16.076;2023-06-19T02:50:01;8.90;;;4.30;;
72286;SDS011;60221;45.696;16.076;2023-06-19T02:52:29;8.50;;;4.10;;
72286;SDS011;60221;45.696;16.076;2023-06-19T02:54:55;10.70;;;4.30;;
72286;SDS011;60221;45.696;16.076;2023-06-19T02:57:22;8.20;;;4.50;;
72286;SDS011;60221;45.696;16.076;2023-06-19T02:59:49;7.50;;;4.00;;
72286;SDS011;60221;45.696;16.076;2023-06-19T03:02:16;6.60;;;3.70;;
72286;SDS011;60221;45.696;16.076;2023-06-19T03:04:42;10.90;;;4.20;;
72286;SDS011;60221;45.696;16.076;2023-06-19T03:07:10;7.70;;;4.10;;
72286;SDS011;60221;45.696;16.076;2023-06-19T03:09:39;11.90;;;4.10;;
72286;SDS011;60221;45.696;16.076;2023-06-19T03:12:07;8.00;;;3.40;;
72286;SDS011;60221;45.696;16.076;2023-06-19T03:14:34;8.90;;;4.10;;
72286;SDS011;60221;45.696;16.076;2023-06-19T03:17:00;8.40;;;4.20;;
72286;SDS011;60221;45.696;16.076;2023-06-19T03:19:27;8.60;;;4.40;;
72286;SDS011;60221;45.696;16.076;2023-06-19T03:21:54;10.10;;;4.10;;
72286;SDS011;60221;45.696;16.076;2023-06-19T03:24:21;10.10;;;4.30;;
72286;SDS011;60221;45.696;16.076;2023-06-19T03:26:49;8.90;;;4.60;;
72286;SDS011;60221;45.696;16.076;2023-06-19T03:29:16;10.30;;;4.70;;
72286;SDS011;60221;45.696;16.076;2023-06-19T03:32:08;8.10;;;4.00;;
72286;SDS011;60221;45.696;16.076;2023-06-19T03:34:35;8.80;;;4.50;;
72286;SDS011;60221;45.696;16.076;2023-06-19T03:37:05;12.20;;;4.60;;
72286;SDS011;60221;45.696;16.076;2023-06-19T03:39:33;8.20;;;4.00;;
72286;SDS011;60221;45.696;16.076;2023-06-19T03:42:05;8.80;;;4.30;;
72286;SDS011;60221;45.696;16.076;2023-06-19T03:44:32;9.10;;;4.60;;
72286;SDS011;60221;45.696;16.076;2023-06-19T03:46:59;8.20;;;4.50;;
72286;SDS011;60221;45.696;16.076;2023-06-19T03:49:27;8.30;;;4.40;;
72286;SDS011;60221;45.696;16.076;2023-06-19T03:51:53;7.60;;;4.00;;
72286;SDS011;60221;45.696;16.076;2023-06-19T03:54:21;8.10;;;4.90;;
72286;SDS011;60221;45.696;16.076;2023-06-19T03:56:48;9.40;;;4.50;;
72286;SDS011;60221;45.696;16.076;2023-06-19T03:59:16;7.60;;;4.60;;
72286;SDS011;60221;45.696;16.076;2023-06-19T04:01:42;10.30;;;4.00;;
72286;SDS011;60221;45.696;16.076;2023-06-19T04:04:09;9.50;;;4.50;;
72286;SDS011;60221;45.696;16.076;2023-06-19T04:06:36;8.00;;;4.60;;
72286;SDS011;60221;45.696;16.076;2023-06-19T04:09:02;9.80;;;4.80;;
72286;SDS011;60221;45.696;16.076;2023-06-19T04:11:29;7.10;;;4.60;;
72286;SDS011;60221;45.696;16.076;2023-06-19T04:13:56;9.20;;;4.50;;
72286;SDS011;60221;45.696;16.076;2023-06-19T04:16:23;8.20;;;4.50;;
72286;SDS011;60221;45.696;16.076;2023-06-19T04:18:49;9.00;;;4.90;;
72286;SDS011;60221;45.696;16.076;2023-06-19T04:21:16;8.30;;;4.80;;
72286;SDS011;60221;45.696;16.076;2023-06-19T04:23:43;7.50;;;5.00;;
72286;SDS011;60221;45.696;16.076;2023-06-19T04:26:09;8.80;;;5.10;;
72286;SDS011;60221;45.696;16.076;2023-06-19T04:28:36;8.80;;;5.00;;
72286;SDS011;60221;45.696;16.076;2023-06-19T04:31:02;9.00;;;5.40;;
72286;SDS011;60221;45.696;16.076;2023-06-19T04:33:29;9.50;;;4.90;;
72286;SDS011;60221;45.696;16.076;2023-06-19T04:35:56;10.90;;;5.30;;
72286;SDS011;60221;45.696;16.076;2023-06-19T04:38:23;7.00;;;5.10;;
72286;SDS011;60221;45.696;16.076;2023-06-19T04:40:50;7.40;;;5.20;;
72286;SDS011;60221;45.696;16.076;2023-06-19T04:43:17;7.90;;;5.20;;
72286;SDS011;60221;45.696;16.076;2023-06-19T04:45:44;9.60;;;6.00;;
72286;SDS011;60221;45.696;16.076;2023-06-19T04:48:11;10.70;;;5.70;;
72286;SDS011;60221;45.696;16.076;2023-06-19T04:50:38;12.50;;;5.60;;
72286;SDS011;60221;45.696;16.076;2023-06-19T04:53:04;9.70;;;5.80;;
72286;SDS011;60221;45.696;16.076;2023-06-19T04:55:32;9.90;;;5.90;;
72286;SDS011;60221;45.696;16.076;2023-06-19T04:57:59;8.10;;;5.50;;
72286;SDS011;60221;45.696;16.076;2023-06-19T05:00:25;8.20;;;5.90;;
72286;SDS011;60221;45.696;16.076;2023-06-19T05:02:53;10.20;;;5.80;;
72286;SDS011;60221;45.696;16.076;2023-06-19T05:05:20;10.50;;;5.80;;
72286;SDS011;60221;45.696;16.076;2023-06-19T05:07:50;11.70;;;5.90;;
72286;SDS011;60221;45.696;16.076;2023-06-19T05:10:17;9.70;;;5.30;;
72286;SDS011;60221;45.696;16.076;2023-06-19T05:12:44;8.00;;;5.50;;
72286;SDS011;60221;45.696;16.076;2023-06-19T05:15:11;7.70;;;5.40;;
72286;SDS011;60221;45.696;16.076;2023-06-19T05:17:37;7.40;;;6.00;;
72286;SDS011;60221;45.696;16.076;2023-06-19T05:20:05;8.30;;;5.60;;
72286;SDS011;60221;45.696;16.076;2023-06-19T05:22:35;8.90;;;6.20;;
72286;SDS011;60221;45.696;16.076;2023-06-19T05:25:03;8.20;;;5.60;;
72286;SDS011;60221;45.696;16.076;2023-06-19T05:27:29;10.40;;;6.70;;
72286;SDS011;60221;45.696;16.076;2023-06-19T05:29:56;9.70;;;6.00;;
72286;SDS011;60221;45.696;16.076;2023-06-19T05:32:23;8.40;;;6.40;;
72286;SDS011;60221;45.696;16.076;2023-06-19T05:34:50;8.80;;;6.40;;
72286;SDS011;60221;45.696;16.076;2023-06-19T05:37:16;9.80;;;5.90;;
72286;SDS011;60221;45.696;16.076;2023-06-19T05:39:43;7.70;;;5.80;;
72286;SDS011;60221;45.696;16.076;2023-06-19T05:42:10;9.20;;;6.00;;
72286;SDS011;60221;45.696;16.076;2023-06-19T05:44:36;7.60;;;5.90;;
72286;SDS011;60221;45.696;16.076;2023-06-19T05:47:03;10.70;;;6.30;;
72286;SDS011;60221;45.696;16.076;2023-06-19T05:49:30;8.10;;;6.20;;
72286;SDS011;60221;45.696;16.076;2023-06-19T05:51:58;8.60;;;6.20;;
72286;SDS011;60221;45.696;16.076;2023-06-19T05:54:25;9.20;;;5.80;;
72286;SDS011;60221;45.696;16.076;2023-06-19T05:56:52;9.20;;;6.30;;
72286;SDS011;60221;45.696;16.076;2023-06-19T05:59:19;8.20;;;6.00;;
72286;SDS011;60221;45.696;16.076;2023-06-19T06:01:46;9.40;;;6.30;;
72286;SDS011;60221;45.696;16.076;2023-06-19T06:04:13;8.00;;;6.00;;
72286;SDS011;60221;45.696;16.076;2023-06-19T06:06:40;8.40;;;6.20;;
72286;SDS011;60221;45.696;16.076;2023-06-19T06:09:07;7.50;;;5.30;;
72286;SDS011;60221;45.696;16.076;2023-06-19T06:11:37;7.30;;;5.10;;
72286;SDS011;60221;45.696;16.076;2023-06-19T06:14:04;5.60;;;4.80;;
72286;SDS011;60221;45.696;16.076;2023-06-19T06:16:30;6.50;;;4.30;;
72286;SDS011;60221;45.696;16.076;2023-06-19T06:18:57;7.40;;;5.40;;
72286;SDS011;60221;45.696;16.076;2023-06-19T06:21:25;8.60;;;5.10;;
72286;SDS011;60221;45.696;16.076;2023-06-19T06:23:52;6.10;;;5.20;;
72286;SDS011;60221;45.696;16.076;2023-06-19T06:26:19;6.00;;;4.90;;
72286;SDS011;60221;45.696;16.076;2023-06-19T06:28:46;7.70;;;4.90;;
72286;SDS011;60221;45.696;16.076;2023-06-19T06:31:12;8.20;;;5.00;;
72286;SDS011;60221;45.696;16.076;2023-06-19T06:33:39;7.40;;;5.20;;
72286;SDS011;60221;45.696;16.076;2023-06-19T06:36:06;7.90;;;5.10;;
72286;SDS011;60221;45.696;16.076;2023-06-19T06:38:34;7.70;;;5.20;;
72286;SDS011;60221;45.696;16.076;2023-06-19T06:41:01;5.70;;;4.90;;
72286;SDS011;60221;45.696;16.076;2023-06-19T06:43:27;7.70;;;5.00;;
72286;SDS011;60221;45.696;16.076;2023-06-19T06:45:54;5.70;;;5.00;;
72286;SDS011;60221;45.696;16.076;2023-06-19T06:48:21;7.10;;;4.80;;
72286;SDS011;60221;45.696;16.076;2023-06-19T06:50:47;6.10;;;4.60;;
72286;SDS011;60221;45.696;16.076;2023-06-19T06:53:14;7.10;;;4.80;;
72286;SDS011;60221;45.696;16.076;2023-06-19T06:55:41;8.70;;;5.20;;
72286;SDS011;60221;45.696;16.076;2023-06-19T06:58:07;6.10;;;4.60;;
72286;SDS011;60221;45.696;16.076;2023-06-19T07:00:34;5.80;;;4.90;;
72286;SDS011;60221;45.696;16.076;2023-06-19T07:03:01;6.00;;;4.60;;
72286;SDS011;60221;45.696;16.076;2023-06-19T07:05:28;6.30;;;4.70;;
72286;SDS011;60221;45.696;16.076;2023-06-19T07:07:56;6.30;;;5.20;;
72286;SDS011;60221;45.696;16.076;2023-06-19T07:10:23;6.20;;;4.90;;
72286;SDS011;60221;45.696;16.076;2023-06-19T07:12:50;6.50;;;5.00;;
72286;SDS011;60221;45.696;16.076;2023-06-19T07:15:17;5.90;;;4.60;;
72286;SDS011;60221;45.696;16.076;2023-06-19T07:17:44;6.60;;;4.70;;
72286;SDS011;60221;45.696;16.076;2023-06-19T07:20:11;6.40;;;4.60;;
72286;SDS011;60221;45.696;16.076;2023-06-19T07:22:38;8.30;;;5.40;;
72286;SDS011;60221;45.696;16.076;2023-06-19T07:25:05;6.30;;;4.70;;
72286;SDS011;60221;45.696;16.076;2023-06-19T07:27:32;7.50;;;5.40;;
72286;SDS011;60221;45.696;16.076;2023-06-19T07:29:59;5.90;;;4.70;;
72286;SDS011;60221;45.696;16.076;2023-06-19T07:32:25;5.70;;;4.40;;
72286;SDS011;60221;45.696;16.076;2023-06-19T07:34:53;7.70;;;4.70;;
72286;SDS011;60221;45.696;16.076;2023-06-19T07:37:19;6.20;;;4.70;;
72286;SDS011;60221;45.696;16.076;2023-06-19T07:39:47;6.50;;;4.60;;
72286;SDS011;60221;45.696;16.076;2023-06-19T07:42:14;7.50;;;4.80;;
72286;SDS011;60221;45.696;16.076;2023-06-19T07:44:42;8.20;;;4.70;;
72286;SDS011;60221;45.696;16.076;2023-06-19T07:47:09;5.60;;;4.50;;
72286;SDS011;60221;45.696;16.076;2023-06-19T07:49:36;6.60;;;4.80;;
72286;SDS011;60221;45.696;16.076;2023-06-19T07:52:03;7.80;;;4.60;;
72286;SDS011;60221;45.696;16.076;2023-06-19T07:54:30;6.30;;;4.50;;
72286;SDS011;60221;45.696;16.076;2023-06-19T07:56:57;6.70;;;4.30;;
72286;SDS011;60221;45.696;16.076;2023-06-19T07:59:23;5.60;;;4.40;;
72286;SDS011;60221;45.696;16.076;2023-06-19T08:01:50;6.20;;;4.60;;
72286;SDS011;60221;45.696;16.076;2023-06-19T08:04:17;6.70;;;4.20;;
72286;SDS011;60221;45.696;16.076;2023-06-19T08:06:44;6.00;;;4.60;;
72286;SDS011;60221;45.696;16.076;2023-06-19T08:09:10;7.00;;;4.70;;
72286;SDS011;60221;45.696;16.076;2023-06-19T08:11:37;5.10;;;4.00;;
72286;SDS011;60221;45.696;16.076;2023-06-19T08:14:04;6.00;;;4.60;;
72286;SDS011;60221;45.696;16.076;2023-06-19T08:16:30;5.60;;;4.20;;
72286;SDS011;60221;45.696;16.076;2023-06-19T08:18:57;6.20;;;4.30;;
72286;SDS011;60221;45.696;16.076;2023-06-19T08:21:24;7.00;;;4.70;;
72286;SDS011;60221;45.696;16.076;2023-06-19T08:23:50;6.40;;;4.60;;
72286;SDS011;60221;45.696;16.076;2023-06-19T08:26:17;5.80;;;4.70;;
72286;SDS011;60221;45.696;16.076;2023-06-19T08:28:44;6.90;;;4.40;;
72286;SDS011;60221;45.696;16.076;2023-06-19T08:31:11;6.40;;;4.30;;
72286;SDS011;60221;45.696;16.076;2023-06-19T08:33:38;7.20;;;4.60;;
72286;SDS011;60221;45.696;16.076;2023-06-19T08:36:04;6.10;;;5.00;;
72286;SDS011;60221;45.696;16.076;2023-06-19T08:38:31;6.00;;;4.30;;
72286;SDS011;60221;45.696;16.076;2023-06-19T08:40:58;7.60;;;4.60;;
72286;SDS011;60221;45.696;16.076;2023-06-19T08:43:24;5.70;;;4.30;;
72286;SDS011;60221;45.696;16.076;2023-06-19T08:48:27;5.70;;;4.30;;
72286;SDS011;60221;45.696;16.076;2023-06-19T08:50:54;6.00;;;4.20;;
72286;SDS011;60221;45.696;16.076;2023-06-19T08:53:21;6.70;;;4.40;;
72286;SDS011;60221;45.696;16.076;2023-06-19T08:55:49;7.20;;;4.10;;
72286;SDS011;60221;45.696;16.076;2023-06-19T08:58:23;7.90;;;4.40;;
72286;SDS011;60221;45.696;16.076;2023-06-19T09:00:50;6.00;;;4.30;;
72286;SDS011;60221;45.696;16.076;2023-06-19T09:03:20;5.80;;;3.80;;
72286;SDS011;60221;45.696;16.076;2023-06-19T09:05:48;5.80;;;4.40;;
72286;SDS011;60221;45.696;16.076;2023-06-19T09:08:19;6.80;;;4.50;;
72286;SDS011;60221;45.696;16.076;2023-06-19T09:10:59;8.20;;;4.60;;
72286;SDS011;60221;45.696;16.076;2023-06-19T09:13:26;7.30;;;4.30;;
72286;SDS011;60221;45.696;16.076;2023-06-19T09:18:25;7.10;;;4.90;;
72286;SDS011;60221;45.696;16.076;2023-06-19T09:20:53;5.50;;;4.20;;
72286;SDS011;60221;45.696;16.076;2023-06-19T09:23:20;9.10;;;7.30;;
72286;SDS011;60221;45.696;16.076;2023-06-19T09:25:56;6.70;;;4.80;;
72286;SDS011;60221;45.696;16.076;2023-06-19T09:28:24;6.50;;;4.20;;
72286;SDS011;60221;45.696;16.076;2023-06-19T09:31:01;6.60;;;4.50;;
72286;SDS011;60221;45.696;16.076;2023-06-19T09:33:29;7.10;;;4.60;;
72286;SDS011;60221;45.696;16.076;2023-06-19T09:35:57;6.60;;;4.20;;
72286;SDS011;60221;45.696;16.076;2023-06-19T09:38:25;6.90;;;4.70;;
72286;SDS011;60221;45.696;16.076;2023-06-19T09:40:52;6.40;;;4.50;;
72286;SDS011;60221;45.696;16.076;2023-06-19T09:43:25;5.90;;;4.10;;
72286;SDS011;60221;45.696;16.076;2023-06-19T09:45:54;5.70;;;4.20;;
72286;SDS011;60221;45.696;16.076;2023-06-19T09:48:26;6.60;;;4.40;;
72286;SDS011;60221;45.696;16.076;2023-06-19T09:50:54;6.30;;;4.40;;
72286;SDS011;60221;45.696;16.076;2023-06-19T09:53:21;6.50;;;4.40;;
72286;SDS011;60221;45.696;16.076;2023-06-19T09:55:49;6.40;;;4.20;;
72286;SDS011;60221;45.696;16.076;2023-06-19T09:58:19;7.70;;;4.70;;
72286;SDS011;60221;45.696;16.076;2023-06-19T10:00:46;7.00;;;4.60;;
72286;SDS011;60221;45.696;16.076;2023-06-19T10:03:14;6.50;;;4.50;;
72286;SDS011;60221;45.696;16.076;2023-06-19T10:05:40;6.90;;;4.50;;
72286;SDS011;60221;45.696;16.076;2023-06-19T10:08:07;6.30;;;4.10;;
72286;SDS011;60221;45.696;16.076;2023-06-19T10:10:34;7.00;;;4.60;;
72286;SDS011;60221;45.696;16.076;2023-06-19T10:13:19;5.80;;;4.50;;
72286;SDS011;60221;45.696;16.076;2023-06-19T10:15:50;8.20;;;4.70;;
72286;SDS011;60221;45.696;16.076;2023-06-19T10:18:20;6.00;;;4.60;;
72286;SDS011;60221;45.696;16.076;2023-06-19T10:20:47;6.70;;;4.20;;
72286;SDS011;60221;45.696;16.076;2023-06-19T10:23:16;7.10;;;4.60;;
72286;SDS011;60221;45.696;16.076;2023-06-19T10:25:47;6.60;;;4.90;;
72286;SDS011;60221;45.696;16.076;2023-06-19T10:30:44;7.30;;;4.70;;
72286;SDS011;60221;45.696;16.076;2023-06-19T10:33:12;7.90;;;4.90;;
72286;SDS011;60221;45.696;16.076;2023-06-19T10:35:39;7.20;;;5.30;;
72286;SDS011;60221;45.696;16.076;2023-06-19T10:38:08;8.30;;;5.30;;
72286;SDS011;60221;45.696;16.076;2023-06-19T10:40:36;6.40;;;5.10;;
72286;SDS011;60221;45.696;16.076;2023-06-19T10:43:08;8.60;;;4.80;;
72286;SDS011;60221;45.696;16.076;2023-06-19T10:45:35;5.80;;;4.70;;
72286;SDS011;60221;45.696;16.076;2023-06-19T10:48:02;8.80;;;5.00;;
72286;SDS011;60221;45.696;16.076;2023-06-19T10:50:29;7.30;;;5.20;;
72286;SDS011;60221;45.696;16.076;2023-06-19T10:52:56;6.20;;;4.90;;
72286;SDS011;60221;45.696;16.076;2023-06-19T10:55:22;6.80;;;5.00;;
72286;SDS011;60221;45.696;16.076;2023-06-19T10:57:49;7.10;;;4.80;;
72286;SDS011;60221;45.696;16.076;2023-06-19T11:00:49;9.10;;;5.30;;
72286;SDS011;60221;45.696;16.076;2023-06-19T11:03:09;7.60;;;5.30;;
72286;SDS011;60221;45.696;16.076;2023-06-19T11:05:36;11.70;;;4.80;;
72286;SDS011;60221;45.696;16.076;2023-06-19T11:08:02;6.60;;;4.80;;
72286;SDS011;60221;45.696;16.076;2023-06-19T11:10:29;6.90;;;5.20;;
72286;SDS011;60221;45.696;16.076;2023-06-19T11:12:57;6.20;;;5.20;;
72286;SDS011;60221;45.696;16.076;2023-06-19T11:15:30;7.00;;;4.80;;
72286;SDS011;60221;45.696;16.076;2023-06-19T11:17:57;6.00;;;4.50;;
72286;SDS011;60221;45.696;16.076;2023-06-19T11:20:24;8.10;;;5.20;;
72286;SDS011;60221;45.696;16.076;2023-06-19T11:22:59;7.40;;;5.40;;
72286;SDS011;60221;45.696;16.076;2023-06-19T11:25:36;7.90;;;6.20;;
72286;SDS011;60221;45.696;16.076;2023-06-19T11:28:04;6.20;;;5.00;;
72286;SDS011;60221;45.696;16.076;2023-06-19T11:30:33;7.10;;;5.20;;
72286;SDS011;60221;45.696;16.076;2023-06-19T11:33:00;7.40;;;5.10;;
72286;SDS011;60221;45.696;16.076;2023-06-19T11:35:34;7.40;;;5.40;;
72286;SDS011;60221;45.696;16.076;2023-06-19T11:38:03;6.00;;;5.00;;
72286;SDS011;60221;45.696;16.076;2023-06-19T11:40:38;6.70;;;5.30;;
72286;SDS011;60221;45.696;16.076;2023-06-19T11:43:05;8.40;;;5.20;;
72286;SDS011;60221;45.696;16.076;2023-06-19T11:45:31;7.00;;;4.90;;
72286;SDS011;60221;45.696;16.076;2023-06-19T11:47:58;7.80;;;4.90;;
72286;SDS011;60221;45.696;16.076;2023-06-19T11:50:28;6.50;;;5.00;;
72286;SDS011;60221;45.696;16.076;2023-06-19T11:52:56;8.40;;;5.50;;
72286;SDS011;60221;45.696;16.076;2023-06-19T11:55:26;7.00;;;5.20;;
72286;SDS011;60221;45.696;16.076;2023-06-19T11:57:53;6.60;;;4.70;;
72286;SDS011;60221;45.696;16.076;2023-06-19T12:00:20;6.70;;;5.10;;
72286;SDS011;60221;45.696;16.076;2023-06-19T12:02:47;9.40;;;5.60;;
72286;SDS011;60221;45.696;16.076;2023-06-19T12:05:14;7.60;;;6.00;;
72286;SDS011;60221;45.696;16.076;2023-06-19T12:07:40;8.10;;;5.40;;
72286;SDS011;60221;45.696;16.076;2023-06-19T12:10:07;6.90;;;5.00;;
72286;SDS011;60221;45.696;16.076;2023-06-19T12:12:36;7.00;;;5.10;;
72286;SDS011;60221;45.696;16.076;2023-06-19T12:15:04;6.80;;;4.40;;
72286;SDS011;60221;45.696;16.076;2023-06-19T12:17:31;8.90;;;5.40;;
72286;SDS011;60221;45.696;16.076;2023-06-19T12:20:00;8.30;;;5.40;;
72286;SDS011;60221;45.696;16.076;2023-06-19T12:22:26;7.60;;;5.60;;
72286;SDS011;60221;45.696;16.076;2023-06-19T12:24:54;7.30;;;5.40;;
72286;SDS011;60221;45.696;16.076;2023-06-19T12:27:21;8.20;;;5.90;;
72286;SDS011;60221;45.696;16.076;2023-06-19T12:29:47;7.60;;;5.30;;
72286;SDS011;60221;45.696;16.076;2023-06-19T12:32:14;8.10;;;5.00;;
72286;SDS011;60221;45.696;16.076;2023-06-19T12:34:40;7.30;;;5.50;;
72286;SDS011;60221;45.696;16.076;2023-06-19T12:37:15;7.10;;;5.40;;
72286;SDS011;60221;45.696;16.076;2023-06-19T12:39:43;6.70;;;5.40;;
72286;SDS011;60221;45.696;16.076;2023-06-19T12:42:10;7.40;;;5.90;;
72286;SDS011;60221;45.696;16.076;2023-06-19T12:44:40;8.40;;;5.50;;
72286;SDS011;60221;45.696;16.076;2023-06-19T12:47:07;8.70;;;5.60;;
72286;SDS011;60221;45.696;16.076;2023-06-19T12:49:33;6.90;;;5.50;;
72286;SDS011;60221;45.696;16.076;2023-06-19T12:52:00;6.60;;;5.00;;
72286;SDS011;60221;45.696;16.076;2023-06-19T12:54:27;7.60;;;6.00;;
72286;SDS011;60221;45.696;16.076;2023-06-19T12:56:54;7.50;;;5.60;;
72286;SDS011;60221;45.696;16.076;2023-06-19T12:59:21;9.30;;;5.70;;
72286;SDS011;60221;45.696;16.076;2023-06-19T13:01:48;7.30;;;5.40;;
72286;SDS011;60221;45.696;16.076;2023-06-19T13:04:15;7.20;;;5.30;;
72286;SDS011;60221;45.696;16.076;2023-06-19T13:06:42;6.30;;;5.60;;
72286;SDS011;60221;45.696;16.076;2023-06-19T13:09:09;7.90;;;5.70;;
72286;SDS011;60221;45.696;16.076;2023-06-19T13:11:35;8.80;;;5.70;;
72286;SDS011;60221;45.696;16.076;2023-06-19T13:14:02;7.80;;;5.50;;
72286;SDS011;60221;45.696;16.076;2023-06-19T13:16:30;7.20;;;5.60;;
72286;SDS011;60221;45.696;16.076;2023-06-19T13:19:11;7.10;;;5.30;;
72286;SDS011;60221;45.696;16.076;2023-06-19T13:21:38;13.60;;;6.00;;
72286;SDS011;60221;45.696;16.076;2023-06-19T13:24:05;6.40;;;5.20;;
72286;SDS011;60221;45.696;16.076;2023-06-19T13:26:31;6.90;;;5.20;;
72286;SDS011;60221;45.696;16.076;2023-06-19T13:28:58;6.40;;;5.30;;
72286;SDS011;60221;45.696;16.076;2023-06-19T13:31:27;8.20;;;5.50;;
72286;SDS011;60221;45.696;16.076;2023-06-19T13:33:53;9.60;;;6.20;;
72286;SDS011;60221;45.696;16.076;2023-06-19T13:36:20;7.00;;;5.50;;
72286;SDS011;60221;45.696;16.076;2023-06-19T13:38:47;10.50;;;6.00;;
72286;SDS011;60221;45.696;16.076;2023-06-19T13:41:13;8.00;;;5.90;;
72286;SDS011;60221;45.696;16.076;2023-06-19T13:43:40;7.30;;;5.60;;
72286;SDS011;60221;45.696;16.076;2023-06-19T13:46:07;7.60;;;6.10;;
72286;SDS011;60221;45.696;16.076;2023-06-19T13:48:34;8.60;;;6.00;;
72286;SDS011;60221;45.696;16.076;2023-06-19T13:51:01;6.50;;;5.70;;
72286;SDS011;60221;45.696;16.076;2023-06-19T13:53:27;9.10;;;5.90;;
72286;SDS011;60221;45.696;16.076;2023-06-19T13:55:57;7.70;;;5.60;;
72286;SDS011;60221;45.696;16.076;2023-06-19T13:58:24;8.70;;;6.20;;
72286;SDS011;60221;45.696;16.076;2023-06-19T14:00:50;9.20;;;6.40;;
72286;SDS011;60221;45.696;16.076;2023-06-19T14:03:17;8.20;;;6.90;;
72286;SDS011;60221;45.696;16.076;2023-06-19T14:05:44;8.00;;;6.40;;
72286;SDS011;60221;45.696;16.076;2023-06-19T14:08:11;8.80;;;6.30;;
72286;SDS011;60221;45.696;16.076;2023-06-19T14:10:37;9.20;;;6.20;;
72286;SDS011;60221;45.696;16.076;2023-06-19T14:13:04;8.70;;;7.80;;
72286;SDS011;60221;45.696;16.076;2023-06-19T14:15:31;8.70;;;6.90;;
72286;SDS011;60221;45.696;16.076;2023-06-19T14:17:57;11.70;;;7.60;;
72286;SDS011;60221;45.696;16.076;2023-06-19T14:20:24;11.80;;;8.00;;
72286;SDS011;60221;45.696;16.076;2023-06-19T14:22:51;8.80;;;7.50;;
72286;SDS011;60221;45.696;16.076;2023-06-19T14:25:18;7.80;;;6.90;;
72286;SDS011;60221;45.696;16.076;2023-06-19T14:27:45;10.40;;;7.40;;
72286;SDS011;60221;45.696;16.076;2023-06-19T14:30:12;9.40;;;6.30;;
72286;SDS011;60221;45.696;16.076;2023-06-19T14:32:39;8.70;;;6.50;;
72286;SDS011;60221;45.696;16.076;2023-06-19T14:35:06;7.70;;;6.50;;
72286;SDS011;60221;45.696;16.076;2023-06-19T14:37:33;7.30;;;6.40;;
72286;SDS011;60221;45.696;16.076;2023-06-19T14:39:59;9.00;;;6.30;;
72286;SDS011;60221;45.696;16.076;2023-06-19T14:42:26;6.90;;;5.60;;
72286;SDS011;60221;45.696;16.076;2023-06-19T14:44:53;8.50;;;5.90;;